sensor_id;sensor_type;location;lat;lon;timestamp;pressure;altitude;pressure_sealevel;temperature;humidity
22653;BME280;11493;43.344;26.226;2022-07-21T00:00:28;99262.03;;;19.57;68.94
22653;BME280;11493;43.344;26.226;2022-07-21T00:02:56;99249.03;;;19.42;68.92
22653;BME280;11493;43.344;26.226;2022-07-21T00:05:24;99261.47;;;19.48;68.71
22653;BME280;11493;43.344;26.226;2022-07-21T00:07:52;99259.84;;;19.47;68.38
22653;BME280;11493;43.344;26.226;2022-07-21T00:10:22;99266.19;;;19.44;68.42
22653;BME280;11493;43.344;26.226;2022-07-21T00:12:51;99266.41;;;19.32;68.94
22653;BME280;11493;43.344;26.226;2022-07-21T00:15:23;99253.00;;;19.15;69.15
22653;BME280;11493;43.344;26.226;2022-07-21T00:17:51;99271.03;;;19.21;69.56
22653;BME280;11493;43.344;26.226;2022-07-21T00:20:19;99266.19;;;19.18;69.31
22653;BME280;11493;43.344;26.226;2022-07-21T00:22:46;99263.34;;;19.14;69.93
22653;BME280;11493;43.344;26.226;2022-07-21T00:25:15;99254.06;;;19.07;70.18
22653;BME280;11493;43.344;26.226;2022-07-21T00:27:42;99249.22;;;19.03;70.37
22653;BME280;11493;43.344;26.226;2022-07-21T00:30:11;99260.88;;;19.09;70.00
22653;BME280;11493;43.344;26.226;2022-07-21T00:32:39;99260.88;;;19.09;69.56
22653;BME280;11493;43.344;26.226;2022-07-21T00:35:07;99266.09;;;19.11;69.75
22653;BME280;11493;43.344;26.226;2022-07-21T00:37:37;99252.00;;;19.03;70.13
22653;BME280;11493;43.344;26.226;2022-07-21T00:40:07;99263.28;;;19.11;69.80
22653;BME280;11493;43.344;26.226;2022-07-21T00:42:37;99256.84;;;19.07;69.74
22653;BME280;11493;43.344;26.226;2022-07-21T00:45:13;99248.78;;;19.01;70.00
22653;BME280;11493;43.344;26.226;2022-07-21T00:47:40;99253.06;;;18.95;69.02
22653;BME280;11493;43.344;26.226;2022-07-21T00:50:11;99242.97;;;18.87;68.42
22653;BME280;11493;43.344;26.226;2022-07-21T00:52:39;99245.34;;;18.85;67.90
22653;BME280;11493;43.344;26.226;2022-07-21T00:55:07;99249.66;;;18.83;68.15
22653;BME280;11493;43.344;26.226;2022-07-21T00:57:36;99253.63;;;18.82;69.13
22653;BME280;11493;43.344;26.226;2022-07-21T01:00:11;99236.97;;;18.62;69.71
22653;BME280;11493;43.344;26.226;2022-07-21T01:02:44;99247.50;;;18.73;69.16
22653;BME280;11493;43.344;26.226;2022-07-21T01:05:13;99238.31;;;18.72;69.53
22653;BME280;11493;43.344;26.226;2022-07-21T01:07:44;99243.47;;;18.70;69.99
22653;BME280;11493;43.344;26.226;2022-07-21T01:10:13;99231.44;;;18.66;69.71
22653;BME280;11493;43.344;26.226;2022-07-21T01:12:41;99248.16;;;18.66;70.40
22653;BME280;11493;43.344;26.226;2022-07-21T01:15:10;99239.00;;;18.65;70.42
22653;BME280;11493;43.344;26.226;2022-07-21T01:17:38;99236.72;;;18.71;70.41
22653;BME280;11493;43.344;26.226;2022-07-21T01:20:08;99226.75;;;18.70;70.40
22653;BME280;11493;43.344;26.226;2022-07-21T01:22:39;99214.41;;;18.71;70.61
22653;BME280;11493;43.344;26.226;2022-07-21T01:25:07;99226.06;;;18.77;70.93
22653;BME280;11493;43.344;26.226;2022-07-21T01:27:36;99206.88;;;18.71;70.88
22653;BME280;11493;43.344;26.226;2022-07-21T01:30:06;99211.75;;;18.78;71.00
22653;BME280;11493;43.344;26.226;2022-07-21T01:32:39;99202.66;;;18.81;70.77
22653;BME280;11493;43.344;26.226;2022-07-21T01:35:09;99215.91;;;18.88;71.21
22653;BME280;11493;43.344;26.226;2022-07-21T01:37:41;99226.38;;;18.94;71.12
22653;BME280;11493;43.344;26.226;2022-07-21T01:40:10;99232.38;;;18.96;71.45
22653;BME280;11493;43.344;26.226;2022-07-21T01:42:58;99224.88;;;19.00;71.17
22653;BME280;11493;43.344;26.226;2022-07-21T01:45:26;99220.91;;;19.01;71.12
22653;BME280;11493;43.344;26.226;2022-07-21T01:47:54;99222.53;;;19.02;70.98
22653;BME280;11493;43.344;26.226;2022-07-21T01:50:24;99233.72;;;19.06;70.49
22653;BME280;11493;43.344;26.226;2022-07-21T01:53:00;99233.03;;;19.13;70.14
22653;BME280;11493;43.344;26.226;2022-07-21T01:55:31;99229.06;;;19.14;70.05
22653;BME280;11493;43.344;26.226;2022-07-21T01:58:00;99226.59;;;19.09;70.27
22653;BME280;11493;43.344;26.226;2022-07-21T02:00:28;99221.78;;;19.06;70.54
22653;BME280;11493;43.344;26.226;2022-07-21T02:02:55;99222.09;;;19.00;70.40
22653;BME280;11493;43.344;26.226;2022-07-21T02:05:23;99225.19;;;18.95;70.41
22653;BME280;11493;43.344;26.226;2022-07-21T02:07:50;99219.94;;;18.90;70.60
22653;BME280;11493;43.344;26.226;2022-07-21T02:10:21;99225.44;;;18.87;70.70
22653;BME280;11493;43.344;26.226;2022-07-21T02:12:49;99223.78;;;18.82;70.89
22653;BME280;11493;43.344;26.226;2022-07-21T02:15:36;99222.91;;;18.78;71.14
22653;BME280;11493;43.344;26.226;2022-07-21T02:18:05;99224.44;;;18.76;71.61
22653;BME280;11493;43.344;26.226;2022-07-21T02:20:39;99234.88;;;18.79;71.55
22653;BME280;11493;43.344;26.226;2022-07-21T02:23:07;99226.31;;;18.68;71.95
22653;BME280;11493;43.344;26.226;2022-07-21T02:25:35;99216.19;;;18.60;72.13
22653;BME280;11493;43.344;26.226;2022-07-21T02:28:02;99229.28;;;18.56;72.34
22653;BME280;11493;43.344;26.226;2022-07-21T02:30:30;99218.94;;;18.56;72.70
22653;BME280;11493;43.344;26.226;2022-07-21T02:32:57;99223.69;;;18.56;73.17
22653;BME280;11493;43.344;26.226;2022-07-21T02:35:26;99224.25;;;18.65;73.29
22653;BME280;11493;43.344;26.226;2022-07-21T02:37:57;99190.88;;;18.46;73.70
22653;BME280;11493;43.344;26.226;2022-07-21T02:40:25;99222.72;;;18.67;73.00
22653;BME280;11493;43.344;26.226;2022-07-21T02:42:53;99211.94;;;18.66;72.52
22653;BME280;11493;43.344;26.226;2022-07-21T02:45:20;99209.91;;;18.63;72.42
22653;BME280;11493;43.344;26.226;2022-07-21T02:47:55;99210.09;;;18.74;72.28
22653;BME280;11493;43.344;26.226;2022-07-21T02:50:25;99220.00;;;18.71;72.31
22653;BME280;11493;43.344;26.226;2022-07-21T02:52:57;99214.72;;;18.66;72.03
22653;BME280;11493;43.344;26.226;2022-07-21T02:55:26;99211.13;;;18.65;72.39
22653;BME280;11493;43.344;26.226;2022-07-21T02:58:10;99209.63;;;18.49;72.83
22653;BME280;11493;43.344;26.226;2022-07-21T03:00:45;99214.03;;;18.50;73.39
22653;BME280;11493;43.344;26.226;2022-07-21T03:03:30;99210.38;;;18.46;73.75
22653;BME280;11493;43.344;26.226;2022-07-21T03:06:01;99212.88;;;18.51;73.68
22653;BME280;11493;43.344;26.226;2022-07-21T03:08:29;99220.78;;;18.49;73.84
22653;BME280;11493;43.344;26.226;2022-07-21T03:10:56;99216.44;;;18.51;73.65
22653;BME280;11493;43.344;26.226;2022-07-21T03:13:24;99204.88;;;18.49;73.97
22653;BME280;11493;43.344;26.226;2022-07-21T03:15:52;99207.72;;;18.53;73.54
22653;BME280;11493;43.344;26.226;2022-07-21T03:18:20;99216.94;;;18.57;73.61
22653;BME280;11493;43.344;26.226;2022-07-21T03:20:49;99222.13;;;18.58;73.72
22653;BME280;11493;43.344;26.226;2022-07-21T03:23:20;99220.69;;;18.64;73.43
22653;BME280;11493;43.344;26.226;2022-07-21T03:25:48;99221.16;;;18.70;73.42
22653;BME280;11493;43.344;26.226;2022-07-21T03:28:25;99209.97;;;18.66;73.77
22653;BME280;11493;43.344;26.226;2022-07-21T03:30:53;99225.38;;;18.83;72.81
22653;BME280;11493;43.344;26.226;2022-07-21T03:33:21;99237.84;;;18.89;72.59
22653;BME280;11493;43.344;26.226;2022-07-21T03:35:48;99239.88;;;18.92;73.40
22653;BME280;11493;43.344;26.226;2022-07-21T03:38:16;99238.69;;;18.93;74.21
22653;BME280;11493;43.344;26.226;2022-07-21T03:40:43;99227.50;;;18.90;73.57
22653;BME280;11493;43.344;26.226;2022-07-21T03:43:15;99241.84;;;19.15;72.81
22653;BME280;11493;43.344;26.226;2022-07-21T03:46:01;99247.66;;;19.29;71.96
22653;BME280;11493;43.344;26.226;2022-07-21T03:48:33;99252.50;;;19.35;71.78
22653;BME280;11493;43.344;26.226;2022-07-21T03:51:03;99249.78;;;19.39;72.29
22653;BME280;11493;43.344;26.226;2022-07-21T03:53:31;99257.38;;;19.42;72.92
22653;BME280;11493;43.344;26.226;2022-07-21T03:55:59;99244.72;;;19.48;72.78
22653;BME280;11493;43.344;26.226;2022-07-21T03:58:27;99253.34;;;19.62;72.72
22653;BME280;11493;43.344;26.226;2022-07-21T04:00:55;99263.81;;;19.69;72.59
22653;BME280;11493;43.344;26.226;2022-07-21T04:03:23;99266.31;;;19.78;72.06
22653;BME280;11493;43.344;26.226;2022-07-21T04:05:51;99261.25;;;19.87;72.13
22653;BME280;11493;43.344;26.226;2022-07-21T04:08:25;99260.50;;;19.90;72.59
22653;BME280;11493;43.344;26.226;2022-07-21T04:10:53;99258.19;;;19.95;72.41
22653;BME280;11493;43.344;26.226;2022-07-21T04:13:23;99274.28;;;20.09;72.15
22653;BME280;11493;43.344;26.226;2022-07-21T04:15:59;99257.53;;;20.09;71.71
22653;BME280;11493;43.344;26.226;2022-07-21T04:18:27;99268.03;;;20.19;71.43
22653;BME280;11493;43.344;26.226;2022-07-21T04:20:55;99255.59;;;20.13;71.20
22653;BME280;11493;43.344;26.226;2022-07-21T04:23:23;99268.97;;;20.30;71.78
22653;BME280;11493;43.344;26.226;2022-07-21T04:25:50;99278.72;;;20.44;71.73
22653;BME280;11493;43.344;26.226;2022-07-21T04:28:18;99287.63;;;20.53;71.31
22653;BME280;11493;43.344;26.226;2022-07-21T04:30:49;99273.75;;;20.63;70.10
22653;BME280;11493;43.344;26.226;2022-07-21T04:33:22;99275.88;;;20.74;69.56
22653;BME280;11493;43.344;26.226;2022-07-21T04:35:57;99280.78;;;20.87;69.61
22653;BME280;11493;43.344;26.226;2022-07-21T04:38:26;99277.69;;;20.99;69.54
22653;BME280;11493;43.344;26.226;2022-07-21T04:40:54;99277.84;;;21.17;68.74
22653;BME280;11493;43.344;26.226;2022-07-21T04:43:22;99291.50;;;21.22;69.39
22653;BME280;11493;43.344;26.226;2022-07-21T04:45:50;99288.41;;;21.35;67.62
22653;BME280;11493;43.344;26.226;2022-07-21T04:48:18;99269.72;;;21.46;67.32
22653;BME280;11493;43.344;26.226;2022-07-21T04:50:46;99278.97;;;21.53;66.44
22653;BME280;11493;43.344;26.226;2022-07-21T04:53:13;99294.69;;;21.76;66.13
22653;BME280;11493;43.344;26.226;2022-07-21T04:55:41;99298.31;;;21.80;67.04
22653;BME280;11493;43.344;26.226;2022-07-21T04:58:13;99297.56;;;21.90;67.45
22653;BME280;11493;43.344;26.226;2022-07-21T05:00:42;99297.69;;;22.04;65.53
22653;BME280;11493;43.344;26.226;2022-07-21T05:03:09;99284.09;;;22.06;65.75
22653;BME280;11493;43.344;26.226;2022-07-21T05:05:38;99291.34;;;22.14;65.57
22653;BME280;11493;43.344;26.226;2022-07-21T05:08:05;99293.41;;;22.28;64.57
22653;BME280;11493;43.344;26.226;2022-07-21T05:10:33;99301.84;;;22.46;64.47
22653;BME280;11493;43.344;26.226;2022-07-21T05:13:00;99297.84;;;22.43;64.83
22653;BME280;11493;43.344;26.226;2022-07-21T05:15:28;99306.28;;;22.54;63.94
22653;BME280;11493;43.344;26.226;2022-07-21T05:17:56;99289.41;;;22.40;64.73
22653;BME280;11493;43.344;26.226;2022-07-21T05:20:23;99313.91;;;22.60;63.62
22653;BME280;11493;43.344;26.226;2022-07-21T05:22:51;99298.31;;;22.67;63.29
22653;BME280;11493;43.344;26.226;2022-07-21T05:25:18;99324.44;;;22.88;62.84
22653;BME280;11493;43.344;26.226;2022-07-21T05:27:46;99314.03;;;22.92;62.43
22653;BME280;11493;43.344;26.226;2022-07-21T05:30:13;99308.41;;;23.07;60.79
22653;BME280;11493;43.344;26.226;2022-07-21T05:32:40;99318.88;;;23.31;58.88
22653;BME280;11493;43.344;26.226;2022-07-21T05:35:14;99305.63;;;23.39;58.32
22653;BME280;11493;43.344;26.226;2022-07-21T05:37:42;99314.06;;;23.46;58.28
22653;BME280;11493;43.344;26.226;2022-07-21T05:40:10;99316.50;;;23.54;57.72
22653;BME280;11493;43.344;26.226;2022-07-21T05:42:38;99311.66;;;23.66;57.28
22653;BME280;11493;43.344;26.226;2022-07-21T05:45:07;99306.00;;;23.83;58.01
22653;BME280;11493;43.344;26.226;2022-07-21T05:47:35;99320.81;;;23.98;58.30
22653;BME280;11493;43.344;26.226;2022-07-21T05:50:02;99323.59;;;24.16;57.94
22653;BME280;11493;43.344;26.226;2022-07-21T05:52:30;99317.16;;;24.26;57.06
22653;BME280;11493;43.344;26.226;2022-07-21T05:54:57;99317.13;;;24.37;54.72
22653;BME280;11493;43.344;26.226;2022-07-21T05:57:26;99329.06;;;24.55;53.05
22653;BME280;11493;43.344;26.226;2022-07-21T05:59:53;99322.97;;;24.71;51.69
22653;BME280;11493;43.344;26.226;2022-07-21T06:02:21;99316.53;;;24.74;51.37
22653;BME280;11493;43.344;26.226;2022-07-21T06:04:49;99328.06;;;24.94;51.21
22653;BME280;11493;43.344;26.226;2022-07-21T06:07:16;99326.78;;;25.09;50.03
22653;BME280;11493;43.344;26.226;2022-07-21T06:09:45;99332.31;;;25.23;49.91
22653;BME280;11493;43.344;26.226;2022-07-21T06:12:13;99328.22;;;25.31;49.89
22653;BME280;11493;43.344;26.226;2022-07-21T06:14:43;99321.66;;;25.45;49.56
22653;BME280;11493;43.344;26.226;2022-07-21T06:17:11;99334.00;;;25.65;49.49
22653;BME280;11493;43.344;26.226;2022-07-21T06:19:39;99334.28;;;25.78;49.91
22653;BME280;11493;43.344;26.226;2022-07-21T06:22:07;99321.72;;;25.86;49.43
22653;BME280;11493;43.344;26.226;2022-07-21T06:24:34;99316.84;;;25.90;48.99
22653;BME280;11493;43.344;26.226;2022-07-21T06:27:02;99334.28;;;26.15;48.63
22653;BME280;11493;43.344;26.226;2022-07-21T06:29:32;99335.34;;;26.29;48.52
22653;BME280;11493;43.344;26.226;2022-07-21T06:32:00;99334.03;;;26.40;48.64
22653;BME280;11493;43.344;26.226;2022-07-21T06:34:27;99333.44;;;26.56;48.43
22653;BME280;11493;43.344;26.226;2022-07-21T06:36:55;99329.63;;;26.70;48.20
22653;BME280;11493;43.344;26.226;2022-07-21T06:39:23;99329.50;;;26.77;47.04
22653;BME280;11493;43.344;26.226;2022-07-21T06:41:50;99322.53;;;26.85;46.76
22653;BME280;11493;43.344;26.226;2022-07-21T06:44:18;99317.63;;;26.89;46.62
22653;BME280;11493;43.344;26.226;2022-07-21T06:46:45;99314.59;;;27.07;46.34
22653;BME280;11493;43.344;26.226;2022-07-21T06:49:13;99301.78;;;26.99;46.12
22653;BME280;11493;43.344;26.226;2022-07-21T06:51:40;99311.38;;;27.05;46.27
22653;BME280;11493;43.344;26.226;2022-07-21T06:54:08;99317.19;;;27.21;45.74
22653;BME280;11493;43.344;26.226;2022-07-21T06:56:35;99325.50;;;27.32;45.63
22653;BME280;11493;43.344;26.226;2022-07-21T06:59:03;99327.72;;;27.44;45.96
22653;BME280;11493;43.344;26.226;2022-07-21T07:01:30;99317.81;;;27.56;44.88
22653;BME280;11493;43.344;26.226;2022-07-21T07:03:58;99315.84;;;27.53;45.46
22653;BME280;11493;43.344;26.226;2022-07-21T07:06:26;99320.22;;;27.57;45.22
22653;BME280;11493;43.344;26.226;2022-07-21T07:08:54;99317.72;;;27.63;44.52
22653;BME280;11493;43.344;26.226;2022-07-21T07:11:22;99318.03;;;27.68;44.84
22653;BME280;11493;43.344;26.226;2022-07-21T07:13:49;99315.25;;;27.65;44.47
22653;BME280;11493;43.344;26.226;2022-07-21T07:16:25;99316.00;;;27.69;44.30
22653;BME280;11493;43.344;26.226;2022-07-21T07:18:53;99312.69;;;27.74;44.79
22653;BME280;11493;43.344;26.226;2022-07-21T07:21:21;99298.03;;;27.79;44.52
22653;BME280;11493;43.344;26.226;2022-07-21T07:23:48;99308.66;;;27.95;44.48
22653;BME280;11493;43.344;26.226;2022-07-21T07:26:17;99316.28;;;27.98;44.47
22653;BME280;11493;43.344;26.226;2022-07-21T07:28:44;99304.31;;;27.90;44.18
22653;BME280;11493;43.344;26.226;2022-07-21T07:31:12;99296.41;;;28.01;43.87
22653;BME280;11493;43.344;26.226;2022-07-21T07:33:39;99303.81;;;28.15;44.20
22653;BME280;11493;43.344;26.226;2022-07-21T07:36:07;99307.59;;;28.28;43.66
22653;BME280;11493;43.344;26.226;2022-07-21T07:38:40;99298.19;;;28.35;43.70
22653;BME280;11493;43.344;26.226;2022-07-21T07:41:09;99301.88;;;28.32;43.54
22653;BME280;11493;43.344;26.226;2022-07-21T07:43:37;99296.94;;;28.36;43.85
22653;BME280;11493;43.344;26.226;2022-07-21T07:46:04;99299.41;;;28.34;43.64
22653;BME280;11493;43.344;26.226;2022-07-21T07:48:33;99319.38;;;28.46;44.21
22653;BME280;11493;43.344;26.226;2022-07-21T07:51:04;99305.84;;;28.54;43.89
22653;BME280;11493;43.344;26.226;2022-07-21T07:53:32;99305.72;;;28.61;43.87
22653;BME280;11493;43.344;26.226;2022-07-21T07:56:02;99301.13;;;28.67;44.58
22653;BME280;11493;43.344;26.226;2022-07-21T07:58:30;99303.22;;;28.83;43.72
22653;BME280;11493;43.344;26.226;2022-07-21T08:00:58;99303.16;;;28.87;43.21
22653;BME280;11493;43.344;26.226;2022-07-21T08:03:33;99293.94;;;28.99;43.29
22653;BME280;11493;43.344;26.226;2022-07-21T08:06:01;99296.88;;;29.11;42.78
22653;BME280;11493;43.344;26.226;2022-07-21T08:08:33;99288.38;;;28.95;42.72
22653;BME280;11493;43.344;26.226;2022-07-21T08:11:01;99293.59;;;29.13;41.98
22653;BME280;11493;43.344;26.226;2022-07-21T08:13:29;99297.69;;;29.12;42.92
22653;BME280;11493;43.344;26.226;2022-07-21T08:15:57;99276.97;;;29.15;42.27
22653;BME280;11493;43.344;26.226;2022-07-21T08:18:24;99286.88;;;29.23;42.04
22653;BME280;11493;43.344;26.226;2022-07-21T08:20:51;99284.50;;;29.22;43.02
22653;BME280;11493;43.344;26.226;2022-07-21T08:23:19;99287.59;;;29.27;42.40
22653;BME280;11493;43.344;26.226;2022-07-21T08:25:46;99289.09;;;29.32;41.84
22653;BME280;11493;43.344;26.226;2022-07-21T08:28:14;99290.16;;;29.38;42.36
22653;BME280;11493;43.344;26.226;2022-07-21T08:30:42;99271.13;;;29.38;42.44
22653;BME280;11493;43.344;26.226;2022-07-21T08:33:10;99292.66;;;29.52;42.00
22653;BME280;11493;43.344;26.226;2022-07-21T08:35:38;99285.13;;;29.62;41.75
22653;BME280;11493;43.344;26.226;2022-07-21T08:38:07;99279.47;;;29.62;41.22
22653;BME280;11493;43.344;26.226;2022-07-21T08:40:42;99268.56;;;29.60;42.25
22653;BME280;11493;43.344;26.226;2022-07-21T08:43:12;99272.91;;;29.65;41.10
22653;BME280;11493;43.344;26.226;2022-07-21T08:45:41;99269.91;;;29.56;41.43
22653;BME280;11493;43.344;26.226;2022-07-21T08:48:14;99279.91;;;29.60;41.38
22653;BME280;11493;43.344;26.226;2022-07-21T08:50:48;99271.84;;;29.59;42.09
22653;BME280;11493;43.344;26.226;2022-07-21T08:53:16;99263.50;;;29.68;41.88
22653;BME280;11493;43.344;26.226;2022-07-21T08:55:44;99274.09;;;29.80;40.63
22653;BME280;11493;43.344;26.226;2022-07-21T08:58:12;99272.16;;;29.77;40.29
22653;BME280;11493;43.344;26.226;2022-07-21T09:00:44;99271.84;;;29.88;40.81
22653;BME280;11493;43.344;26.226;2022-07-21T09:03:21;99275.28;;;29.95;40.73
22653;BME280;11493;43.344;26.226;2022-07-21T09:08:35;99266.97;;;30.04;39.79
22653;BME280;11493;43.344;26.226;2022-07-21T09:11:10;99255.63;;;29.88;40.21
22653;BME280;11493;43.344;26.226;2022-07-21T09:13:39;99253.28;;;29.99;39.79
22653;BME280;11493;43.344;26.226;2022-07-21T09:16:09;99256.22;;;30.12;40.12
22653;BME280;11493;43.344;26.226;2022-07-21T09:18:48;99248.34;;;30.03;39.89
22653;BME280;11493;43.344;26.226;2022-07-21T09:21:18;99236.00;;;30.10;40.22
22653;BME280;11493;43.344;26.226;2022-07-21T09:23:46;99247.97;;;30.30;39.94
22653;BME280;11493;43.344;26.226;2022-07-21T09:26:14;99252.53;;;30.40;39.86
22653;BME280;11493;43.344;26.226;2022-07-21T09:28:43;99253.69;;;30.43;40.20
22653;BME280;11493;43.344;26.226;2022-07-21T09:31:13;99238.91;;;30.48;39.68
22653;BME280;11493;43.344;26.226;2022-07-21T09:33:44;99245.16;;;30.56;40.04
22653;BME280;11493;43.344;26.226;2022-07-21T09:36:18;99243.66;;;30.51;40.41
22653;BME280;11493;43.344;26.226;2022-07-21T09:38:51;99247.91;;;30.59;39.46
22653;BME280;11493;43.344;26.226;2022-07-21T09:41:22;99244.06;;;30.66;39.91
22653;BME280;11493;43.344;26.226;2022-07-21T09:43:52;99249.63;;;30.69;39.69
22653;BME280;11493;43.344;26.226;2022-07-21T09:46:28;99241.91;;;30.70;39.92
22653;BME280;11493;43.344;26.226;2022-07-21T09:48:59;99235.53;;;30.79;39.77
22653;BME280;11493;43.344;26.226;2022-07-21T09:51:49;99230.09;;;30.71;39.13
22653;BME280;11493;43.344;26.226;2022-07-21T09:54:16;99239.28;;;30.76;39.44
22653;BME280;11493;43.344;26.226;2022-07-21T09:56:45;99238.72;;;30.81;38.09
22653;BME280;11493;43.344;26.226;2022-07-21T09:59:14;99221.91;;;30.73;38.33
22653;BME280;11493;43.344;26.226;2022-07-21T10:01:42;99229.88;;;30.91;37.74
22653;BME280;11493;43.344;26.226;2022-07-21T10:04:12;99227.13;;;30.88;37.96
22653;BME280;11493;43.344;26.226;2022-07-21T10:06:40;99237.00;;;31.09;37.72
22653;BME280;11493;43.344;26.226;2022-07-21T10:09:09;99230.22;;;30.93;36.98
22653;BME280;11493;43.344;26.226;2022-07-21T10:11:41;99233.38;;;30.83;37.79
22653;BME280;11493;43.344;26.226;2022-07-21T10:14:12;99236.56;;;30.85;37.83
22653;BME280;11493;43.344;26.226;2022-07-21T10:16:40;99229.19;;;31.00;37.02
22653;BME280;11493;43.344;26.226;2022-07-21T10:19:30;99226.22;;;31.03;36.92
22653;BME280;11493;43.344;26.226;2022-07-21T10:25:09;99222.34;;;31.10;36.81
22653;BME280;11493;43.344;26.226;2022-07-21T10:27:37;99203.03;;;31.05;37.28
22653;BME280;11493;43.344;26.226;2022-07-21T10:33:06;99219.97;;;31.09;37.04
22653;BME280;11493;43.344;26.226;2022-07-21T10:35:34;99213.94;;;31.19;37.68
22653;BME280;11493;43.344;26.226;2022-07-21T10:40:52;99199.94;;;31.25;36.46
22653;BME280;11493;43.344;26.226;2022-07-21T10:45:56;99204.66;;;31.41;36.59
22653;BME280;11493;43.344;26.226;2022-07-21T10:51:12;99201.81;;;31.41;37.27
22653;BME280;11493;43.344;26.226;2022-07-21T10:53:43;99196.69;;;31.48;36.25
22653;BME280;11493;43.344;26.226;2022-07-21T10:56:28;99174.06;;;31.45;36.18
22653;BME280;11493;43.344;26.226;2022-07-21T10:58:58;99191.78;;;31.49;36.47
22653;BME280;11493;43.344;26.226;2022-07-21T11:01:26;99197.09;;;31.59;37.37
22653;BME280;11493;43.344;26.226;2022-07-21T11:06:34;99195.81;;;31.73;36.05
22653;BME280;11493;43.344;26.226;2022-07-21T11:11:56;99194.09;;;31.76;36.07
22653;BME280;11493;43.344;26.226;2022-07-21T11:14:46;99187.50;;;31.66;36.14
22653;BME280;11493;43.344;26.226;2022-07-21T11:17:29;99190.34;;;31.66;36.31
22653;BME280;11493;43.344;26.226;2022-07-21T11:19:57;99189.06;;;31.80;36.32
22653;BME280;11493;43.344;26.226;2022-07-21T11:22:26;99179.75;;;31.79;36.18
22653;BME280;11493;43.344;26.226;2022-07-21T11:27:33;99173.56;;;32.02;35.94
22653;BME280;11493;43.344;26.226;2022-07-21T11:30:04;99182.16;;;32.12;35.11
22653;BME280;11493;43.344;26.226;2022-07-21T11:32:33;99175.88;;;32.17;35.28
22653;BME280;11493;43.344;26.226;2022-07-21T11:35:03;99182.16;;;32.12;35.48
22653;BME280;11493;43.344;26.226;2022-07-21T11:42:32;99163.88;;;32.22;35.34
22653;BME280;11493;43.344;26.226;2022-07-21T11:45:00;99165.22;;;32.30;35.23
22653;BME280;11493;43.344;26.226;2022-07-21T11:47:29;99157.28;;;32.25;34.56
22653;BME280;11493;43.344;26.226;2022-07-21T11:49:59;99165.88;;;32.34;34.91
22653;BME280;11493;43.344;26.226;2022-07-21T11:52:31;99165.31;;;32.48;35.00
22653;BME280;11493;43.344;26.226;2022-07-21T11:55:01;99167.31;;;32.39;34.38
22653;BME280;11493;43.344;26.226;2022-07-21T11:57:30;99171.28;;;32.19;34.65
22653;BME280;11493;43.344;26.226;2022-07-21T12:00:02;99160.31;;;32.09;35.03
22653;BME280;11493;43.344;26.226;2022-07-21T12:02:38;99152.84;;;32.02;35.19
22653;BME280;11493;43.344;26.226;2022-07-21T12:05:08;99153.41;;;32.19;35.12
22653;BME280;11493;43.344;26.226;2022-07-21T12:07:45;99140.91;;;32.16;35.32
22653;BME280;11493;43.344;26.226;2022-07-21T12:10:22;99136.34;;;32.19;34.78
22653;BME280;11493;43.344;26.226;2022-07-21T12:12:50;99156.06;;;32.35;34.64
22653;BME280;11493;43.344;26.226;2022-07-21T12:19:19;99153.22;;;32.35;34.77
22653;BME280;11493;43.344;26.226;2022-07-21T12:21:51;99138.56;;;32.46;34.72
22653;BME280;11493;43.344;26.226;2022-07-21T12:24:20;99145.25;;;32.61;34.69
22653;BME280;11493;43.344;26.226;2022-07-21T12:26:51;99150.03;;;32.73;34.57
22653;BME280;11493;43.344;26.226;2022-07-21T12:29:29;99148.19;;;32.88;34.32
22653;BME280;11493;43.344;26.226;2022-07-21T12:31:59;99143.28;;;32.89;34.26
22653;BME280;11493;43.344;26.226;2022-07-21T12:34:27;99134.75;;;32.89;33.92
22653;BME280;11493;43.344;26.226;2022-07-21T12:36:55;99140.28;;;32.83;34.26
22653;BME280;11493;43.344;26.226;2022-07-21T12:39:25;99133.53;;;32.59;34.30
22653;BME280;11493;43.344;26.226;2022-07-21T12:42:33;99129.25;;;32.54;34.85
22653;BME280;11493;43.344;26.226;2022-07-21T12:45:15;99111.97;;;32.49;34.51
22653;BME280;11493;43.344;26.226;2022-07-21T12:47:43;99124.72;;;32.66;34.49
22653;BME280;11493;43.344;26.226;2022-07-21T12:50:31;99127.69;;;32.62;35.46
22653;BME280;11493;43.344;26.226;2022-07-21T12:52:59;99136.44;;;32.68;34.85
22653;BME280;11493;43.344;26.226;2022-07-21T12:55:26;99124.38;;;32.64;33.56
22653;BME280;11493;43.344;26.226;2022-07-21T12:57:54;99120.41;;;32.71;33.03
22653;BME280;11493;43.344;26.226;2022-07-21T13:00:28;99116.97;;;32.76;33.23
22653;BME280;11493;43.344;26.226;2022-07-21T13:02:57;99116.56;;;32.95;32.84
22653;BME280;11493;43.344;26.226;2022-07-21T13:05:25;99108.00;;;32.95;33.63
22653;BME280;11493;43.344;26.226;2022-07-21T13:07:53;99112.13;;;32.94;33.37
22653;BME280;11493;43.344;26.226;2022-07-21T13:10:21;99127.13;;;32.86;33.14
22653;BME280;11493;43.344;26.226;2022-07-21T13:12:48;99124.38;;;32.73;33.23
22653;BME280;11493;43.344;26.226;2022-07-21T13:15:17;99115.63;;;32.49;33.62
22653;BME280;11493;43.344;26.226;2022-07-21T13:17:45;99117.63;;;32.40;33.42
22653;BME280;11493;43.344;26.226;2022-07-21T13:20:14;99116.41;;;32.50;33.63
22653;BME280;11493;43.344;26.226;2022-07-21T13:22:41;99110.13;;;32.64;33.49
22653;BME280;11493;43.344;26.226;2022-07-21T13:25:14;99111.41;;;32.63;33.72
22653;BME280;11493;43.344;26.226;2022-07-21T13:27:41;99101.41;;;32.58;33.59
22653;BME280;11493;43.344;26.226;2022-07-21T13:30:15;99106.63;;;32.51;34.22
22653;BME280;11493;43.344;26.226;2022-07-21T13:32:43;99103.94;;;32.56;33.96
22653;BME280;11493;43.344;26.226;2022-07-21T13:35:11;99086.56;;;32.63;33.60
22653;BME280;11493;43.344;26.226;2022-07-21T13:37:56;99091.53;;;32.90;33.04